Time;durP1;ratioP1;P1;durP2;ratioP2;P2;SDS_P1;SDS_P2;PMS_P1;PMS_P2;Temp;Humidity;BMP_temperature;BMP_pressure;BME280_temperature;BME280_humidity;BME280_pressure;Samples;Min_cycle;Max_cycle;Signal;HPM_P1;HPM_P2
2023/12/24 00:00:54;;;;;;;8.40;6.30;;;;;;;-1.73;100.00;96067.73;110373;1242;70574;-62
2023/12/24 00:03:44;;;;;;;6.90;5.40;;;;;;;-1.77;100.00;96070.00;110414;1244;69079;-62
2023/12/24 00:06:14;;;;;;;7.20;5.10;;;;;;;-1.78;100.00;96078.54;110509;1240;68984;-63
2023/12/24 00:08:45;;;;;;;6.40;5.30;;;;;;;-1.80;100.00;96082.58;110416;1242;58943;-63
2023/12/24 00:11:17;;;;;;;7.30;4.70;;;;;;;-1.76;100.00;96089.05;110282;1242;58933;-62
2023/12/24 00:13:47;;;;;;;5.70;4.60;;;;;;;-1.79;100.00;96093.27;110378;1239;70530;-63
2023/12/24 00:16:17;;;;;;;8.10;5.20;;;;;;;-1.77;100.00;96098.83;110393;1240;69876;-64
2023/12/24 00:18:47;;;;;;;6.40;5.00;;;;;;;-1.73;100.00;96101.05;110392;1242;68558;-63
2023/12/24 00:21:17;;;;;;;;;;;;;;;-1.75;100.00;96110.19;110410;1243;58933;-63
2023/12/24 00:23:49;;;;;;;7.10;4.30;;;;;;;-1.78;100.00;96114.45;110488;1241;58871;-63
2023/12/24 00:26:20;;;;;;;6.30;4.40;;;;;;;-1.77;100.00;96120.36;110622;1239;69704;-63
2023/12/24 00:28:51;;;;;;;4.90;4.10;;;;;;;-1.71;100.00;96119.61;110388;1241;69828;-63
2023/12/24 00:31:22;;;;;;;5.70;4.10;;;;;;;-1.72;100.00;96120.15;110425;1240;69284;-63
2023/12/24 00:33:53;;;;;;;5.40;4.40;;;;;;;-1.72;100.00;96123.92;110423;1240;58898;-63
2023/12/24 00:36:24;;;;;;;5.20;3.90;;;;;;;-1.70;100.00;96133.39;110298;1243;58834;-63
2023/12/24 00:38:55;;;;;;;5.70;4.60;;;;;;;-1.77;100.00;96134.05;110459;1238;71261;-63
2023/12/24 00:41:25;;;;;;;;;;;;;;;-1.74;100.00;96138.84;110562;1240;67715;-63
2023/12/24 00:43:56;;;;;;;5.20;4.20;;;;;;;-1.71;100.00;96144.36;110493;1244;68531;-63
2023/12/24 00:46:27;;;;;;;4.50;3.80;;;;;;;-1.69;100.00;96144.95;110604;1238;58893;-63
2023/12/24 00:48:58;;;;;;;5.40;4.50;;;;;;;-1.68;100.00;96145.40;110372;1241;58920;-65
2023/12/24 00:51:29;;;;;;;5.70;4.60;;;;;;;-1.71;100.00;96147.41;110404;1241;70623;-65
2023/12/24 00:54:01;;;;;;;6.70;4.70;;;;;;;-1.68;100.00;96154.15;110440;1241;68837;-64
2023/12/24 00:56:33;;;;;;;4.50;3.90;;;;;;;-1.64;100.00;96161.12;110292;1242;68323;-64
2023/12/24 00:59:03;;;;;;;5.90;4.70;;;;;;;-1.63;100.00;96169.80;110529;1240;58808;-64
2023/12/24 01:01:35;;;;;;;5.00;4.10;;;;;;;-1.64;100.00;96169.84;110583;1239;58863;-63
2023/12/24 01:04:06;;;;;;;6.10;4.90;;;;;;;-1.62;100.00;96171.09;110316;1242;70637;-64
2023/12/24 01:06:38;;;;;;;7.30;4.70;;;;;;;-1.63;100.00;96174.59;110367;1241;69056;-64
2023/12/24 01:09:08;;;;;;;;;;;;;;;-1.64;100.00;96173.42;110229;1242;69195;-63
2023/12/24 01:11:40;;;;;;;5.80;3.90;;;;;;;-1.63;100.00;96175.41;110201;1243;58918;-63
2023/12/24 01:14:11;;;;;;;5.90;4.70;;;;;;;-1.65;100.00;96176.73;110350;1245;58929;-63
2023/12/24 01:16:41;;;;;;;;;;;;;;;-1.64;100.00;96180.94;110428;1241;70527;-64
2023/12/24 01:19:11;;;;;;;;;;;;;;;-1.58;100.00;96185.63;110382;1241;69957;-63
2023/12/24 01:21:42;;;;;;;;;;;;;;;-1.61;100.00;96190.53;110396;1241;68544;-63
2023/12/24 01:24:14;;;;;;;5.90;4.10;;;;;;;-1.58;100.00;96189.56;110436;1238;58944;-63
2023/12/24 01:26:45;;;;;;;5.90;4.40;;;;;;;-1.58;100.00;96193.66;110471;1241;58889;-63
2023/12/24 01:29:18;;;;;;;7.10;5.10;;;;;;;-1.59;100.00;96198.48;110352;1239;70654;-63
2023/12/24 01:31:48;;;;;;;7.10;5.80;;;;;;;-1.56;100.00;96199.38;110476;1245;69620;-64
2023/12/24 01:34:18;;;;;;;;;;;;;;;-1.58;100.00;96196.55;110357;1239;68531;-64
2023/12/24 01:36:48;;;;;;;8.30;5.90;;;;;;;-1.61;100.00;96201.62;110459;1240;58950;-63
2023/12/24 01:39:20;;;;;;;6.90;5.00;;;;;;;-1.60;100.00;96202.13;110232;1238;59296;-64
2023/12/24 01:41:51;;;;;;;7.60;5.20;;;;;;;-1.63;100.00;96209.76;110404;1240;70021;-63
2023/12/24 01:44:21;;;;;;;6.00;5.00;;;;;;;-1.60;100.00;96210.15;110398;1238;68744;-63
2023/12/24 01:46:51;;;;;;;8.50;5.20;;;;;;;-1.63;100.00;96215.58;110394;1238;69803;-64
2023/12/24 01:49:21;;;;;;;6.60;4.70;;;;;;;-1.59;100.00;96218.83;110405;1242;58941;-63
2023/12/24 01:51:52;;;;;;;6.70;5.50;;;;;;;-1.63;100.00;96223.77;110253;1242;58878;-63
2023/12/24 01:54:22;;;;;;;7.40;5.20;;;;;;;-1.58;100.00;96227.67;110249;1239;71157;-63
2023/12/24 01:56:52;;;;;;;6.60;5.20;;;;;;;-1.56;100.00;96232.03;110383;1241;69689;-64
2023/12/24 01:59:22;;;;;;;;;;;;;;;-1.52;100.00;96233.77;110226;1242;69300;-64
2023/12/24 02:01:53;;;;;;;5.70;4.30;;;;;;;-1.52;100.00;96238.00;110360;1240;58881;-64
2023/12/24 02:04:24;;;;;;;5.30;4.30;;;;;;;-1.49;100.00;96238.36;110290;1238;58928;-63
2023/12/24 02:06:57;;;;;;;7.60;4.60;;;;;;;-1.46;100.00;96246.45;110379;1241;69839;-64
2023/12/24 02:09:28;;;;;;;5.40;4.30;;;;;;;-1.44;100.00;96249.13;110228;1242;69209;-64
2023/12/24 02:11:59;;;;;;;8.10;4.90;;;;;;;-1.43;100.00;96252.80;110435;1241;69289;-64
2023/12/24 02:14:30;;;;;;;7.90;5.90;;;;;;;-1.42;100.00;96257.05;109297;1244;1340198;-64
2023/12/24 02:17:02;;;;;;;8.90;5.60;;;;;;;-1.43;100.00;96263.75;110384;1240;58857;-64
2023/12/24 02:19:32;;;;;;;10.80;7.10;;;;;;;-1.41;100.00;96261.42;110248;1238;69889;-63
2023/12/24 02:22:03;;;;;;;10.50;6.70;;;;;;;-1.41;100.00;96264.69;110250;1238;67484;-63
2023/12/24 02:24:33;;;;;;;9.90;7.20;;;;;;;-1.40;100.00;96268.75;110333;1238;68532;-64
2023/12/24 02:27:31;;;;;;;8.00;5.90;;;;;;;-1.45;100.00;96267.80;110445;1238;58889;-63
2023/12/24 02:30:10;;;;;;;9.10;6.70;;;;;;;-1.49;100.00;96268.80;110547;1240;58850;-64
2023/12/24 02:32:43;;;;;;;8.90;6.50;;;;;;;-1.52;100.00;96269.45;110397;1241;69895;-64
2023/12/24 02:35:17;;;;;;;9.70;6.80;;;;;;;-1.47;100.00;96270.26;110436;1238;68332;-63
2023/12/24 02:37:49;;;;;;;9.30;6.40;;;;;;;-1.46;100.00;96266.48;110298;1242;69677;-62
2023/12/24 02:40:18;;;;;;;11.00;6.20;;;;;;;-1.46;100.00;96267.50;110530;1241;58939;-63
2023/12/24 02:42:54;;;;;;;10.40;6.20;;;;;;;-1.51;100.00;96266.98;110483;1242;58881;-63
2023/12/24 02:45:27;;;;;;;8.30;5.70;;;;;;;-1.49;100.00;96263.35;110501;1241;69990;-63
2023/12/24 02:48:00;;;;;;;9.00;5.30;;;;;;;-1.49;100.00;96265.90;110296;1238;69556;-63
2023/12/24 02:50:29;;;;;;;9.90;6.20;;;;;;;-1.52;100.00;96275.77;110420;1238;68332;-63
2023/12/24 02:53:00;;;;;;;7.70;5.70;;;;;;;-1.50;100.00;96274.84;110587;1241;58911;-63
2023/12/24 02:55:30;;;;;;;9.50;6.00;;;;;;;-1.50;100.00;96272.27;110454;1240;58876;-63
2023/12/24 02:58:00;;;;;;;;;;;;;;;-1.50;100.00;96274.85;110594;1241;68906;-63
2023/12/24 03:00:32;;;;;;;7.00;4.70;;;;;;;-1.51;100.00;96274.55;110448;1241;69292;-63
2023/12/24 03:03:02;;;;;;;8.00;4.70;;;;;;;-1.49;100.00;96277.19;110381;1241;69172;-63
2023/12/24 03:05:34;;;;;;;7.20;4.80;;;;;;;-1.49;100.00;96282.50;110276;1249;58895;-63
2023/12/24 03:08:04;;;;;;;;;;;;;;;-1.47;100.00;96288.90;110335;1242;58862;-65
2023/12/24 03:10:34;;;;;;;;;;;;;;;-1.48;100.00;96298.83;110463;1241;70061;-63
2023/12/24 03:13:05;;;;;;;9.80;5.60;;;;;;;-1.52;100.00;96308.56;110500;1238;68610;-62
2023/12/24 03:15:43;;;;;;;10.40;6.90;;;;;;;-1.53;100.00;96311.20;110614;1242;68279;-62
2023/12/24 03:18:14;;;;;;;9.00;6.10;;;;;;;-1.53;100.00;96313.22;110558;1238;58865;-63
2023/12/24 03:20:46;;;;;;;10.10;6.30;;;;;;;-1.52;100.00;96313.56;110531;1238;58874;-63
2023/12/24 03:23:24;;;;;;;7.00;4.90;;;;;;;-1.53;100.00;96316.14;110453;1242;70868;-65
2023/12/24 03:25:55;;;;;;;8.20;5.70;;;;;;;-1.55;100.00;96321.88;110312;1238;67680;-64
2023/12/24 03:28:26;;;;;;;8.30;5.80;;;;;;;-1.60;100.00;96322.21;110388;1238;69268;-63
2023/12/24 03:30:57;;;;;;;8.10;5.20;;;;;;;-1.54;100.00;96321.28;110390;1238;58940;-64
2023/12/24 03:33:30;;;;;;;7.00;4.90;;;;;;;-1.57;100.00;96329.95;110287;1242;59013;-65
2023/12/24 03:36:09;;;;;;;7.10;5.20;;;;;;;-1.53;100.00;96331.87;110375;1242;69645;-64
2023/12/24 03:38:40;;;;;;;7.40;5.00;;;;;;;-1.60;100.00;96337.77;110391;1238;69209;-64
2023/12/24 03:41:11;;;;;;;6.50;4.70;;;;;;;-1.56;100.00;96345.12;110354;1238;68593;-64
2023/12/24 03:43:43;;;;;;;8.10;4.70;;;;;;;-1.54;100.00;96349.67;110167;1245;58985;-63
2023/12/24 03:46:20;;;;;;;6.90;4.60;;;;;;;-1.56;100.00;96351.11;110309;1242;58901;-65
2023/12/24 03:48:54;;;;;;;7.10;4.90;;;;;;;-1.56;100.00;96353.17;110419;1238;69446;-65
2023/12/24 03:51:25;;;;;;;6.90;4.30;;;;;;;-1.57;100.00;96357.84;110295;1242;68404;-65
2023/12/24 03:53:55;;;;;;;6.20;4.30;;;;;;;-1.54;100.00;96360.63;110372;1241;69923;-65
2023/12/24 03:56:26;;;;;;;6.60;4.60;;;;;;;-1.56;100.00;96357.42;110415;1240;58871;-65
2023/12/24 03:58:57;;;;;;;6.40;4.20;;;;;;;-1.53;100.00;96357.66;110333;1242;58844;-64
2023/12/24 04:01:27;;;;;;;4.80;3.70;;;;;;;-1.48;100.00;96362.23;110444;1238;69800;-64
2023/12/24 04:04:00;;;;;;;4.10;3.60;;;;;;;-1.47;100.00;96366.49;110465;1238;67483;-64
2023/12/24 04:06:30;;;;;;;4.60;3.40;;;;;;;-1.42;100.00;96364.38;110459;1241;68789;-65
2023/12/24 04:09:00;;;;;;;5.40;3.80;;;;;;;-1.41;100.00;96367.60;110443;1241;58895;-64
2023/12/24 04:11:33;;;;;;;5.90;3.80;;;;;;;-1.43;100.00;96363.39;110413;1242;58921;-63
2023/12/24 04:14:03;;;;;;;5.10;3.80;;;;;;;-1.42;100.00;96364.36;110508;1241;70664;-64
2023/12/24 04:16:33;;;;;;;6.60;3.90;;;;;;;-1.42;100.00;96371.05;110393;1238;68493;-64
2023/12/24 04:19:05;;;;;;;5.30;4.30;;;;;;;-1.41;100.00;96373.90;110231;1242;68418;-64
2023/12/24 04:21:35;;;;;;;4.90;3.50;;;;;;;-1.37;100.00;96366.75;110381;1238;58940;-63
2023/12/24 04:24:06;;;;;;;7.70;5.00;;;;;;;-1.37;100.00;96365.36;110461;1241;58943;-64
2023/12/24 04:26:36;;;;;;;;;;;;;;;-1.39;100.00;96366.64;110257;1242;71128;-65
2023/12/24 04:29:07;;;;;;;8.60;5.40;;;;;;;-1.39;100.00;96366.49;110265;1242;69264;-64
2023/12/24 04:31:39;;;;;;;7.30;5.00;;;;;;;-1.41;100.00;96366.02;110329;1238;67855;-64
2023/12/24 04:34:11;;;;;;;8.90;6.20;;;;;;;-1.40;100.00;96367.40;110573;1238;58960;-64
2023/12/24 04:36:41;;;;;;;6.60;4.40;;;;;;;-1.41;100.00;96369.98;110461;1242;58873;-64
2023/12/24 04:39:12;;;;;;;6.80;5.00;;;;;;;-1.45;100.00;96381.74;110337;1245;70673;-65
2023/12/24 04:41:43;;;;;;;8.30;5.60;;;;;;;-1.46;100.00;96384.23;110428;1240;68516;-64
2023/12/24 04:44:15;;;;;;;7.60;5.30;;;;;;;-1.45;100.00;96385.55;110429;1247;69290;-63
2023/12/24 04:46:46;;;;;;;7.40;4.90;;;;;;;-1.45;100.00;96390.15;110303;1242;58924;-65
2023/12/24 04:49:17;;;;;;;8.00;5.30;;;;;;;-1.48;100.00;96392.65;110318;1238;58839;-64
2023/12/24 04:51:48;;;;;;;6.80;4.90;;;;;;;-1.46;100.00;96392.09;110494;1241;70052;-63
2023/12/24 04:54:19;;;;;;;8.60;5.30;;;;;;;-1.45;100.00;96399.52;110338;1242;69322;-63
2023/12/24 04:56:50;;;;;;;7.90;6.10;;;;;;;-1.43;100.00;96398.61;110288;1244;69334;-63
2023/12/24 04:59:20;;;;;;;9.40;6.00;;;;;;;-1.41;100.00;96400.73;110412;1241;58931;-63
2023/12/24 05:01:51;;;;;;;8.80;5.60;;;;;;;-1.44;100.00;96404.77;110270;1238;59316;-63
2023/12/24 05:04:26;;;;;;;7.40;5.30;;;;;;;-1.39;100.00;96401.52;110352;1240;70903;-63
2023/12/24 05:06:58;;;;;;;7.00;5.20;;;;;;;-1.36;100.00;96401.56;110245;1242;68445;-63
2023/12/24 05:09:29;;;;;;;8.00;5.30;;;;;;;-1.33;100.00;96405.02;110370;1240;69869;-63
2023/12/24 05:11:58;;;;;;;8.60;5.60;;;;;;;-1.33;100.00;96401.28;110331;1238;58911;-63
2023/12/24 05:14:31;;;;;;;8.40;4.90;;;;;;;-1.33;100.00;96404.66;110428;1240;58937;-63
2023/12/24 05:17:02;;;;;;;8.60;5.80;;;;;;;-1.30;100.00;96409.16;110278;1242;70643;-63
2023/12/24 05:19:33;;;;;;;9.00;6.00;;;;;;;-1.28;100.00;96408.42;110580;1238;69805;-63
2023/12/24 05:22:03;;;;;;;8.70;5.80;;;;;;;-1.26;100.00;96406.46;110614;1238;67820;-63
2023/12/24 05:24:33;;;;;;;9.30;5.80;;;;;;;-1.28;100.00;96405.48;110224;1242;58940;-65
2023/12/24 05:27:03;;;;;;;9.30;6.10;;;;;;;-1.25;100.00;96408.80;110473;1240;58868;-65
2023/12/24 05:29:32;;;;;;;8.80;6.00;;;;;;;-1.24;100.00;96419.88;110468;1241;69830;-64
2023/12/24 05:32:03;;;;;;;12.80;8.50;;;;;;;-1.27;100.00;96428.04;110550;1238;69918;-64
2023/12/24 05:34:32;;;;;;;25.40;19.00;;;;;;;-1.27;100.00;96433.15;110650;1240;69244;-64
2023/12/24 05:37:04;;;;;;;29.40;19.20;;;;;;;-1.24;100.00;96431.67;110526;1241;58884;-64
2023/12/24 05:39:33;;;;;;;12.20;9.40;;;;;;;-1.20;100.00;96429.98;110356;1241;58902;-64
2023/12/24 05:42:03;;;;;;;11.70;7.40;;;;;;;-1.23;100.00;96439.48;110442;1241;70479;-64
2023/12/24 05:44:36;;;;;;;;;;;;;;;-1.20;100.00;96442.79;110581;1241;69845;-64
2023/12/24 05:47:06;;;;;;;17.20;11.90;;;;;;;-1.21;100.00;96443.51;110423;1242;69299;-64
2023/12/24 05:49:39;;;;;;;9.10;7.00;;;;;;;-1.25;100.00;96446.06;110531;1238;58826;-64
2023/12/24 05:52:08;;;;;;;9.50;7.30;;;;;;;-1.23;100.00;96453.16;110579;1238;58854;-64
2023/12/24 05:54:38;;;;;;;9.40;6.00;;;;;;;-1.20;100.00;96452.88;110544;1243;70617;-63
2023/12/24 05:57:08;;;;;;;9.30;6.60;;;;;;;-1.18;100.00;96465.60;110425;1241;69757;-64
2023/12/24 05:59:40;;;;;;;11.10;7.50;;;;;;;-1.16;100.00;96468.75;110389;1238;69806;-64
2023/12/24 06:02:11;;;;;;;10.80;6.70;;;;;;;-1.14;100.00;96473.13;110588;1242;58941;-64
2023/12/24 06:04:41;;;;;;;8.70;6.20;;;;;;;-1.14;100.00;96470.76;110472;1238;58918;-64
2023/12/24 06:07:10;;;;;;;;;;;;;;;-1.14;100.00;96475.19;110514;1242;70192;-64
2023/12/24 06:09:40;;;;;;;24.80;12.90;;;;;;;-1.14;100.00;96477.05;110477;1241;69822;-64
2023/12/24 06:12:09;;;;;;;18.00;11.30;;;;;;;-1.11;100.00;96476.95;110386;1242;69291;-64
2023/12/24 06:14:42;;;;;;;57.20;38.60;;;;;;;-1.11;100.00;96472.67;110399;1241;58925;-64
2023/12/24 06:17:12;;;;;;;;;;;;;;;-1.10;100.00;96475.51;110393;1238;58875;-64
2023/12/24 06:19:44;;;;;;;15.70;14.00;;;;;;;-1.06;100.00;96472.11;110315;1238;71380;-64
2023/12/24 06:22:15;;;;;;;11.60;7.20;;;;;;;-1.06;100.00;96478.79;110423;1240;69244;-64
2023/12/24 06:24:45;;;;;;;;;;;;;;;-1.02;100.00;96484.27;110343;1240;69127;-64
2023/12/24 06:27:14;;;;;;;9.00;5.90;;;;;;;-1.03;100.00;96491.64;110378;1240;58911;-64
2023/12/24 06:29:44;;;;;;;8.80;5.80;;;;;;;-0.99;100.00;96493.39;110522;1240;58830;-64
2023/12/24 06:32:13;;;;;;;14.60;9.20;;;;;;;-0.95;100.00;96488.63;110397;1240;70649;-64
2023/12/24 06:34:42;;;;;;;14.40;10.10;;;;;;;-0.96;100.00;96487.08;110418;1238;69346;-64
2023/12/24 06:37:12;;;;;;;15.90;11.80;;;;;;;-0.95;100.00;96486.70;110603;1241;69120;-64
2023/12/24 06:39:42;;;;;;;13.90;11.50;;;;;;;-0.94;100.00;96489.39;110458;1241;58867;-64
2023/12/24 06:42:11;;;;;;;15.70;11.70;;;;;;;-0.88;100.00;96492.76;110343;1241;58834;-64
2023/12/24 06:44:43;;;;;;;10.40;7.10;;;;;;;-0.84;100.00;96494.80;110451;1240;69837;-64
2023/12/24 06:47:13;;;;;;;10.00;6.90;;;;;;;-0.82;100.00;96497.98;110418;1238;69171;-64
2023/12/24 06:49:44;;;;;;;9.40;6.40;;;;;;;-0.78;100.00;96506.88;110293;1242;68608;-64
2023/12/24 06:52:14;;;;;;;8.30;5.60;;;;;;;-0.72;100.00;96511.05;110485;1241;58891;-64
2023/12/24 06:54:43;;;;;;;9.00;5.80;;;;;;;-0.64;100.00;96512.09;110478;1241;58867;-64
2023/12/24 06:57:13;;;;;;;30.10;20.50;;;;;;;-0.59;100.00;96513.27;110492;1239;69593;-64
2023/12/24 06:59:43;;;;;;;;;;;;;;;-0.57;100.00;96519.17;110507;1238;69796;-64
2023/12/24 07:02:13;;;;;;;15.50;11.50;;;;;;;-0.54;100.00;96527.26;110541;1241;69278;-64
2023/12/24 07:04:43;;;;;;;11.10;8.70;;;;;;;-0.48;100.00;96529.74;110475;1241;58986;-64
2023/12/24 07:07:12;;;;;;;10.00;6.50;;;;;;;-0.43;100.00;96522.30;110460;1241;58862;-64
2023/12/24 07:09:42;;;;;;;8.80;6.50;;;;;;;-0.39;100.00;96515.83;110318;1242;70585;-64
2023/12/24 07:12:11;;;;;;;8.00;6.20;;;;;;;-0.36;100.00;96516.04;110516;1241;70169;-64
2023/12/24 07:14:40;;;;;;;9.40;6.60;;;;;;;-0.38;100.00;96518.67;110399;1238;69256;-64
2023/12/24 07:17:09;;;;;;;9.20;7.50;;;;;;;-0.36;100.00;96517.91;110366;1240;58879;-64
2023/12/24 07:19:39;;;;;;;11.40;8.40;;;;;;;-0.32;100.00;96513.81;110379;1238;58946;-64
2023/12/24 07:22:08;;;;;;;12.00;9.40;;;;;;;-0.29;100.00;96524.27;110360;1238;70793;-64
2023/12/24 07:24:38;;;;;;;12.50;9.70;;;;;;;-0.30;100.00;96531.83;110377;1238;68735;-64
2023/12/24 07:27:07;;;;;;;12.40;8.40;;;;;;;-0.25;100.00;96526.02;110361;1240;70030;-64
2023/12/24 07:29:37;;;;;;;10.90;8.10;;;;;;;-0.17;100.00;96522.18;110397;1243;58890;-64
2023/12/24 07:32:06;;;;;;;13.30;9.60;;;;;;;-0.07;100.00;96521.08;110348;1242;58921;-64
2023/12/24 07:34:35;;;;;;;10.90;8.40;;;;;;;-0.05;100.00;96524.08;110486;1240;70552;-64
2023/12/24 07:37:05;;;;;;;11.50;8.60;;;;;;;-0.03;100.00;96517.14;110403;1238;69899;-64
2023/12/24 07:39:35;;;;;;;10.80;7.40;;;;;;;0.01;100.00;96521.39;110441;1238;67520;-65
2023/12/24 07:42:08;;;;;;;11.30;7.90;;;;;;;0.02;100.00;96524.45;110404;1241;58886;-64
2023/12/24 07:44:37;;;;;;;9.20;7.30;;;;;;;0.14;100.00;96546.85;110514;1243;58921;-64
2023/12/24 07:47:09;;;;;;;10.10;7.80;;;;;;;0.16;100.00;96559.94;110493;1238;71110;-64
2023/12/24 07:49:38;;;;;;;9.70;7.90;;;;;;;0.25;100.00;96556.31;110604;1240;69691;-64
2023/12/24 07:52:08;;;;;;;11.00;7.20;;;;;;;0.29;100.00;96555.42;110365;1241;70065;-64
2023/12/24 07:54:37;;;;;;;8.20;6.10;;;;;;;0.40;100.00;96555.78;110365;1241;59687;-64
2023/12/24 07:57:07;;;;;;;9.90;8.80;;;;;;;0.48;100.00;96549.05;110396;1238;59694;-64
2023/12/24 11:00:04;;;;;;;9.10;7.40;;;;;;;1.94;100.00;96551.31;107372;1267;609832;-64
2023/12/24 11:02:42;;;;;;;8.00;6.70;;;;;;;2.15;100.00;96549.05;109146;1255;214882;-64
2023/12/24 11:05:12;;;;;;;10.90;7.70;;;;;;;2.04;100.00;96553.58;109420;1252;58361;-65
2023/12/24 11:07:41;;;;;;;8.10;6.60;;;;;;;2.08;100.00;96553.70;109369;1250;68819;-65
2023/12/24 11:10:37;;;;;;;9.10;7.20;;;;;;;2.04;100.00;96559.23;109322;1251;68549;-64
2023/12/24 11:13:11;;;;;;;11.10;7.70;;;;;;;2.00;100.00;96560.65;109382;1252;69875;-64
2023/12/24 11:15:43;;;;;;;10.20;8.50;;;;;;;2.01;100.00;96560.90;109349;1252;57646;-64
2023/12/24 11:18:11;;;;;;;8.50;7.00;;;;;;;2.01;100.00;96559.41;109605;1249;57638;-64
2023/12/24 11:20:42;;;;;;;10.50;8.00;;;;;;;1.99;100.00;96562.25;109593;1248;68808;-64
2023/12/24 11:23:12;;;;;;;10.60;7.20;;;;;;;1.97;100.00;96552.56;109605;1248;69692;-64
2023/12/24 11:25:46;;;;;;;8.40;6.50;;;;;;;1.92;100.00;96552.46;110295;1241;68874;-64
2023/12/24 11:28:24;;;;;;;11.00;8.80;;;;;;;1.84;100.00;96558.54;110335;1241;58132;-64
2023/12/24 11:31:01;;;;;;;10.80;9.00;;;;;;;1.82;100.00;96558.67;110427;1241;58076;-64
2023/12/24 11:33:34;;;;;;;19.00;16.50;;;;;;;1.65;100.00;96560.02;110318;1241;70381;-64
2023/12/24 11:36:10;;;;;;;15.40;13.30;;;;;;;1.60;100.00;96554.80;110369;1241;69971;-64
2023/12/24 11:38:40;;;;;;;12.80;10.50;;;;;;;1.45;100.00;96553.68;110322;1241;69355;-64
2023/12/24 11:41:09;;;;;;;;;;;;;;;1.47;100.00;96556.16;110287;1241;58433;-64
2023/12/24 11:43:40;;;;;;;18.50;13.30;;;;;;;1.50;100.00;96558.20;110321;1241;58033;-64
2023/12/24 11:46:09;;;;;;;18.50;14.80;;;;;;;1.51;100.00;96555.21;110314;1241;70338;-64
2023/12/24 11:48:38;;;;;;;20.80;16.80;;;;;;;1.53;100.00;96555.16;110318;1241;69850;-64
2023/12/24 11:51:09;;;;;;;24.10;18.70;;;;;;;1.52;100.00;96546.42;110299;1241;68515;-64
2023/12/24 11:53:41;;;;;;;23.30;18.30;;;;;;;1.50;100.00;96541.55;110322;1240;58065;-64
2023/12/24 11:56:15;;;;;;;25.00;18.60;;;;;;;1.47;100.00;96547.89;110318;1241;58066;-64
2023/12/24 11:58:50;;;;;;;28.70;22.10;;;;;;;1.43;100.00;96548.45;110135;1241;70329;-64
2023/12/24 12:01:24;;;;;;;26.80;19.40;;;;;;;1.43;100.00;96546.21;110341;1241;69140;-64
2023/12/24 12:04:00;;;;;;;31.40;23.30;;;;;;;1.47;100.00;96548.75;110346;1241;69184;-64
2023/12/24 12:06:31;;;;;;;29.30;22.10;;;;;;;1.48;100.00;96547.68;110366;1243;58095;-64
2023/12/24 12:09:05;;;;;;;30.20;23.00;;;;;;;1.45;100.00;96548.50;110477;1241;58017;-64
2023/12/24 12:11:36;;;;;;;27.70;21.00;;;;;;;1.46;100.00;96552.75;110400;1240;69621;-65
2023/12/24 12:14:05;;;;;;;29.20;19.30;;;;;;;1.46;100.00;96548.98;110422;1241;69038;-66
2023/12/24 12:16:34;;;;;;;26.30;19.50;;;;;;;1.48;100.00;96550.09;110423;1241;68377;-65
2023/12/24 12:19:03;;;;;;;33.10;24.90;;;;;;;1.52;100.00;96545.57;110355;1241;58131;-64
2023/12/24 12:21:32;;;;;;;32.00;25.50;;;;;;;1.52;100.00;96545.41;110350;1241;58164;-63
2023/12/24 12:24:01;;;;;;;32.10;24.60;;;;;;;1.50;100.00;96542.58;110291;1241;69306;-64
2023/12/24 12:26:30;;;;;;;27.40;20.80;;;;;;;1.48;100.00;96547.16;110353;1240;69189;-64
2023/12/24 12:28:59;;;;;;;37.00;27.60;;;;;;;1.45;100.00;96554.36;110324;1241;69169;-64
2023/12/24 12:31:28;;;;;;;37.00;28.00;;;;;;;1.42;100.00;96555.70;110277;1240;58127;-64
2023/12/24 12:33:57;;;;;;;32.00;23.40;;;;;;;1.43;100.00;96559.95;110311;1241;58047;-64
2023/12/24 12:36:27;;;;;;;29.40;21.20;;;;;;;1.42;100.00;96561.04;110318;1241;70341;-64
2023/12/24 12:38:56;;;;;;;27.80;21.50;;;;;;;1.39;100.00;96562.88;110331;1240;68524;-65
2023/12/24 12:41:24;;;;;;;25.70;19.10;;;;;;;1.31;100.00;96563.14;110348;1241;69150;-64
2023/12/24 12:43:54;;;;;;;33.80;23.90;;;;;;;1.26;100.00;96566.27;110448;1240;58109;-64
2023/12/24 12:46:23;;;;;;;37.60;27.70;;;;;;;1.23;100.00;96564.90;110357;1241;58150;-64
2023/12/24 12:48:52;;;;;;;36.10;26.50;;;;;;;1.15;100.00;96560.66;110287;1242;70220;-64
2023/12/24 12:51:21;;;;;;;35.60;26.60;;;;;;;1.06;100.00;96563.33;110365;1240;68487;-64
2023/12/24 12:53:50;;;;;;;32.00;22.00;;;;;;;0.98;100.00;96570.02;110337;1241;68215;-65
2023/12/24 12:56:20;;;;;;;26.10;19.60;;;;;;;0.96;100.00;96570.48;110427;1241;58015;-65
2023/12/24 12:58:53;;;;;;;25.90;17.40;;;;;;;0.96;100.00;96573.21;110393;1241;58094;-65
2023/12/24 13:01:24;;;;;;;20.20;16.30;;;;;;;0.95;100.00;96571.73;110293;1241;69539;-64
2023/12/24 13:03:58;;;;;;;20.20;15.20;;;;;;;0.92;100.00;96573.41;110344;1242;69625;-65
2023/12/24 13:06:27;;;;;;;17.90;13.20;;;;;;;0.92;100.00;96572.22;110286;1241;69702;-64
2023/12/24 13:09:07;;;;;;;17.90;12.70;;;;;;;0.91;100.00;96575.70;110398;1241;58482;-65
2023/12/24 13:11:36;;;;;;;18.20;13.00;;;;;;;0.89;100.00;96575.81;110343;1242;58011;-64
2023/12/24 13:14:05;;;;;;;17.10;13.40;;;;;;;0.89;100.00;96575.82;110289;1241;69820;-65
2023/12/24 13:16:35;;;;;;;21.70;16.50;;;;;;;0.88;100.00;96578.94;110293;1241;69053;-64
2023/12/24 13:19:23;;;;;;;23.30;17.40;;;;;;;0.90;100.00;96584.85;110360;1241;68514;-65
2023/12/24 13:21:53;;;;;;;41.10;25.40;;;;;;;0.89;100.00;96585.23;110422;1241;58065;-66
2023/12/24 13:24:22;;;;;;;34.40;25.80;;;;;;;0.89;100.00;96591.55;110352;1242;58081;-65
2023/12/24 13:26:51;;;;;;;38.10;26.60;;;;;;;0.89;100.00;96591.60;110288;1240;70176;-65
2023/12/24 13:29:21;;;;;;;32.60;24.10;;;;;;;0.87;100.00;96597.85;110310;1241;69841;-65
2023/12/24 13:31:50;;;;;;;35.30;26.00;;;;;;;0.86;100.00;96596.21;110348;1242;68633;-65
2023/12/24 13:34:20;;;;;;;33.20;25.20;;;;;;;0.88;100.00;96596.08;110442;1241;58155;-65
2023/12/24 13:36:49;;;;;;;29.40;22.00;;;;;;;0.86;100.00;96599.44;110374;1240;58069;-65
2023/12/24 13:39:19;;;;;;;33.80;23.60;;;;;;;0.86;100.00;96599.25;110368;1241;69729;-65
2023/12/24 13:41:48;;;;;;;35.20;25.10;;;;;;;0.84;100.00;96598.84;110349;1242;69218;-65
2023/12/24 13:44:17;;;;;;;39.90;27.10;;;;;;;0.80;100.00;96598.53;110277;1241;67851;-65
2023/12/24 13:46:46;;;;;;;32.60;23.40;;;;;;;0.75;100.00;96596.67;110274;1240;58461;-65
2023/12/24 13:49:15;;;;;;;29.40;20.90;;;;;;;0.72;100.00;96603.72;110318;1241;58142;-65
2023/12/24 13:51:44;;;;;;;27.80;19.80;;;;;;;0.68;100.00;96603.86;110359;1241;70379;-65
2023/12/24 13:54:13;;;;;;;37.90;28.10;;;;;;;0.67;100.00;96604.95;110292;1241;69196;-65
2023/12/24 13:56:43;;;;;;;39.20;25.60;;;;;;;0.63;100.00;96612.17;110274;1241;68639;-65
2023/12/24 13:59:11;;;;;;;42.80;27.10;;;;;;;0.62;100.00;96608.46;110248;1241;58134;-65
2023/12/24 14:01:40;;;;;;;48.90;33.10;;;;;;;0.58;100.00;96607.45;110341;1241;58033;-65
2023/12/24 14:04:11;;;;;;;39.20;27.30;;;;;;;0.57;100.00;96606.31;110274;1241;69838;-65
2023/12/24 14:06:40;;;;;;;38.90;26.30;;;;;;;0.56;100.00;96606.86;110229;1242;69332;-65
2023/12/24 14:09:09;;;;;;;36.00;24.50;;;;;;;0.56;100.00;96605.48;110257;1241;68203;-65
2023/12/24 14:11:39;;;;;;;29.60;22.20;;;;;;;0.58;100.00;96606.41;110403;1241;58079;-65
2023/12/24 14:14:08;;;;;;;31.30;21.30;;;;;;;0.57;100.00;96608.31;110241;1242;58060;-65
2023/12/24 14:16:37;;;;;;;22.10;16.40;;;;;;;0.59;100.00;96609.27;110396;1242;69216;-66
2023/12/24 14:19:06;;;;;;;26.90;16.30;;;;;;;0.61;100.00;96615.55;110322;1241;69151;-66
2023/12/24 14:21:35;;;;;;;21.60;16.20;;;;;;;0.60;100.00;96618.82;110276;1242;69529;-64
2023/12/24 14:24:04;;;;;;;28.90;19.30;;;;;;;0.62;100.00;96620.98;110273;1240;58122;-64
2023/12/24 14:26:37;;;;;;;21.70;15.40;;;;;;;0.59;100.00;96620.75;110291;1240;58142;-64
2023/12/24 14:29:06;;;;;;;20.00;15.20;;;;;;;0.57;100.00;96619.34;110315;1242;69025;-63
2023/12/24 14:31:35;;;;;;;20.60;14.60;;;;;;;0.55;100.00;96619.58;110274;1243;70140;-63
2023/12/24 14:34:04;;;;;;;20.80;13.80;;;;;;;0.53;100.00;96622.25;110304;1242;69633;-64